Time;durP1;ratioP1;P1;durP2;ratioP2;P2;SDS_P1;SDS_P2;PMS_P1;PMS_P2;Temp;Humidity;BMP_temperature;BMP_pressure;BME280_temperature;BME280_humidity;BME280_pressure;Samples;Min_cycle;Max_cycle;Signal;HPM_P1;HPM_P2
2021/04/08 00:00:57;;;;;;;32.97;14.85;;;;;;;;;;8289361;28;20483;-71
2021/04/08 00:05:01;;;;;;;39.92;14.65;;;;;;;;;;8288289;28;20448;-70
2021/04/08 00:09:06;;;;;;;33.13;14.52;;;;;;;;;;8289525;28;20366;-70
2021/04/08 00:13:10;;;;;;;36.25;13.75;;;;;;;;;;8287422;28;20482;-69
2021/04/08 00:17:14;;;;;;;41.28;16.80;;;;;;;;;;8290779;28;20367;-70
2021/04/08 00:21:19;;;;;;;35.15;15.52;;;;;;;;;;8289417;28;20482;-70
2021/04/08 00:25:23;;;;;;;34.50;14.45;;;;;;;;;;8289542;28;20360;-70
2021/04/08 00:29:28;;;;;;;35.70;13.63;;;;;;;;;;8296342;28;20363;-70
2021/04/08 00:33:36;;;;;;;32.63;14.07;;;;;;;;;;8294459;28;20344;-68
2021/04/08 00:37:41;;;;;;;34.60;12.93;;;;;;;;;;8310408;28;20045;-68
2021/04/08 00:41:46;;;;;;;31.90;13.00;;;;;;;;;;8309554;28;20510;-68
2021/04/08 00:45:50;;;;;;;36.25;13.13;;;;;;;;;;8293464;28;20455;-68
2021/04/08 00:49:54;;;;;;;31.35;13.23;;;;;;;;;;8293489;28;20459;-68
2021/04/08 00:53:59;;;;;;;26.45;10.13;;;;;;;;;;8309215;28;20398;-69
2021/04/08 00:58:05;;;;;;;33.40;11.85;;;;;;;;;;8293460;28;20049;-69
2021/04/08 01:02:10;;;;;;;25.33;11.65;;;;;;;;;;8297444;28;20482;-71
2021/04/08 01:06:15;;;;;;;24.60;10.63;;;;;;;;;;8320902;28;20048;-69
2021/04/08 01:10:22;;;;;;;19.90;9.52;;;;;;;;;;8326549;28;20358;-68
2021/04/08 01:14:27;;;;;;;21.50;10.17;;;;;;;;;;8327508;28;20044;-69
2021/04/08 01:19:05;;;;;;;23.50;9.98;;;;;;;;;;8326888;28;20421;-69
2021/04/08 01:23:40;;;;;;;29.98;10.90;;;;;;;;;;8324884;28;20475;-69
2021/04/08 01:28:29;;;;;;;21.02;9.75;;;;;;;;;;8324133;28;20363;-68
2021/04/08 01:32:39;;;;;;;19.33;9.02;;;;;;;;;;8309084;28;20496;-69
2021/04/08 01:36:46;;;;;;;21.05;8.75;;;;;;;;;;8323878;28;20394;-69
2021/04/08 01:40:52;;;;;;;19.30;8.57;;;;;;;;;;8324468;28;20420;-71
2021/04/08 01:44:57;;;;;;;19.52;8.30;;;;;;;;;;8324131;28;20355;-68
2021/04/08 01:49:03;;;;;;;20.38;9.32;;;;;;;;;;8325928;28;20409;-69
2021/04/08 01:53:09;;;;;;;21.52;8.73;;;;;;;;;;8323842;28;20358;-71
2021/04/08 01:57:14;;;;;;;19.92;8.95;;;;;;;;;;8306315;28;20048;-68
2021/04/08 02:01:20;;;;;;;21.25;9.18;;;;;;;;;;8323047;28;20063;-69
2021/04/08 02:05:27;;;;;;;20.85;9.98;;;;;;;;;;8323443;28;20493;-69
2021/04/08 02:09:33;;;;;;;32.60;11.18;;;;;;;;;;8326520;28;20447;-69
2021/04/08 02:13:40;;;;;;;27.85;14.02;;;;;;;;;;8322809;28;20356;-69
2021/04/08 02:17:50;;;;;;;28.63;12.10;;;;;;;;;;8323050;28;20379;-69
2021/04/08 02:21:55;;;;;;;23.35;10.38;;;;;;;;;;8325992;28;20378;-69
2021/04/08 02:26:00;;;;;;;23.48;10.13;;;;;;;;;;8322602;28;20383;-68
2021/04/08 02:30:08;;;;;;;25.27;11.02;;;;;;;;;;8322602;28;20454;-68
2021/04/08 02:34:13;;;;;;;21.03;10.73;;;;;;;;;;8323826;28;20416;-68
2021/04/08 02:38:25;;;;;;;24.05;9.90;;;;;;;;;;8323463;28;20513;-70
2021/04/08 02:42:30;;;;;;;16.80;9.05;;;;;;;;;;8324237;28;20145;-68
2021/04/08 02:46:35;;;;;;;18.60;9.88;;;;;;;;;;8324226;28;20397;-69
2021/04/08 02:50:41;;;;;;;18.88;9.00;;;;;;;;;;8322608;28;20358;-69
2021/04/08 02:55:07;;;;;;;20.33;9.50;;;;;;;;;;8322514;28;20315;-69
2021/04/08 02:59:24;;;;;;;16.13;8.95;;;;;;;;;;8322404;28;20433;-69
2021/04/08 03:03:51;;;;;;;16.33;7.90;;;;;;;;;;8323533;28;20452;-68
2021/04/08 03:07:58;;;;;;;13.90;6.70;;;;;;;;;;8321987;28;20376;-68
2021/04/08 03:12:07;;;;;;;17.25;7.28;;;;;;;;;;8322007;28;20114;-69
2021/04/08 03:16:21;;;;;;;17.45;6.80;;;;;;;;;;8321591;28;20362;-70
2021/04/08 03:20:29;;;;;;;13.45;5.32;;;;;;;;;;8321716;28;20059;-69
2021/04/08 03:24:33;;;;;;;14.30;5.78;;;;;;;;;;8322536;28;20567;-69
2021/04/08 03:28:38;;;;;;;13.25;7.43;;;;;;;;;;8323195;28;20044;-70
2021/04/08 03:32:44;;;;;;;14.30;6.20;;;;;;;;;;8321777;28;20582;-69
2021/04/08 03:36:49;;;;;;;13.13;7.03;;;;;;;;;;8321752;28;20351;-69
2021/04/08 03:40:59;;;;;;;13.85;7.13;;;;;;;;;;8321782;28;20074;-70
2021/04/08 03:45:10;;;;;;;15.60;6.80;;;;;;;;;;8320818;28;20067;-69
2021/04/08 03:49:16;;;;;;;14.60;6.82;;;;;;;;;;8305364;28;20362;-69
2021/04/08 03:53:21;;;;;;;11.23;6.90;;;;;;;;;;8323299;28;20478;-69
2021/04/08 03:57:26;;;;;;;15.70;8.32;;;;;;;;;;8320971;28;20079;-69
2021/04/08 04:01:35;;;;;;;14.02;9.05;;;;;;;;;;8326310;28;20458;-69
2021/04/08 04:05:42;;;;;;;17.08;9.20;;;;;;;;;;8327978;28;20485;-69
2021/04/08 04:09:46;;;;;;;15.98;9.48;;;;;;;;;;8311079;28;20451;-69
2021/04/08 04:13:52;;;;;;;16.33;8.40;;;;;;;;;;8328930;28;20466;-69
2021/04/08 04:17:56;;;;;;;16.27;8.48;;;;;;;;;;8329182;28;20474;-69
2021/04/08 04:22:01;;;;;;;15.88;8.65;;;;;;;;;;8329885;28;20350;-70
2021/04/08 04:26:06;;;;;;;13.88;7.50;;;;;;;;;;8327767;28;20070;-70
2021/04/08 04:30:11;;;;;;;15.27;8.98;;;;;;;;;;8330986;28;20442;-69
2021/04/08 04:34:16;;;;;;;14.20;8.45;;;;;;;;;;8331523;28;20479;-71
2021/04/08 04:38:20;;;;;;;21.73;11.30;;;;;;;;;;8326809;28;20348;-70
2021/04/08 04:42:24;;;;;;;13.85;8.38;;;;;;;;;;8326430;28;20577;-71
2021/04/08 04:46:29;;;;;;;12.43;8.10;;;;;;;;;;8327471;28;20480;-70
2021/04/08 04:50:34;;;;;;;11.60;7.35;;;;;;;;;;8327529;28;20477;-69
2021/04/08 04:54:38;;;;;;;13.38;7.15;;;;;;;;;;8327204;28;20462;-69
2021/04/08 04:58:42;;;;;;;13.73;8.05;;;;;;;;;;8326684;28;20086;-71
2021/04/08 05:02:45;;;;;;;17.55;8.73;;;;;;;;;;8326335;28;20462;-70
2021/04/08 05:06:49;;;;;;;15.73;8.73;;;;;;;;;;8326349;28;20459;-69
2021/04/08 05:10:53;;;;;;;12.25;7.45;;;;;;;;;;8325165;28;20447;-70
2021/04/08 05:14:57;;;;;;;12.55;7.40;;;;;;;;;;8325580;28;20477;-70
2021/04/08 05:19:02;;;;;;;13.27;7.28;;;;;;;;;;8326590;28;20513;-71
2021/04/08 05:23:07;;;;;;;11.48;7.18;;;;;;;;;;8327568;28;20610;-70
2021/04/08 05:27:11;;;;;;;22.17;11.88;;;;;;;;;;8325832;28;20363;-69
2021/04/08 05:31:17;;;;;;;18.77;10.90;;;;;;;;;;8325762;28;20539;-70
2021/04/08 05:35:20;;;;;;;15.93;9.10;;;;;;;;;;8325109;28;20070;-70
2021/04/08 05:39:25;;;;;;;23.70;12.05;;;;;;;;;;8325405;28;20359;-71
2021/04/08 05:43:29;;;;;;;21.95;12.02;;;;;;;;;;8326453;28;20358;-70
2021/04/08 05:47:34;;;;;;;16.23;9.10;;;;;;;;;;8325868;28;20455;-69
2021/04/08 05:51:38;;;;;;;28.38;14.18;;;;;;;;;;8323753;28;20366;-69
2021/04/08 05:55:43;;;;;;;29.20;15.95;;;;;;;;;;8325665;28;20764;-69
2021/04/08 05:59:46;;;;;;;39.15;17.13;;;;;;;;;;8325976;28;20378;-71
2021/04/08 06:03:49;;;;;;;55.40;23.55;;;;;;;;;;8325040;28;20464;-69
2021/04/08 06:07:54;;;;;;;32.42;14.77;;;;;;;;;;8324550;28;20066;-70
2021/04/08 06:11:59;;;;;;;26.17;14.52;;;;;;;;;;8324012;28;20373;-70
2021/04/08 06:16:07;;;;;;;24.13;14.43;;;;;;;;;;8327127;28;20060;-70
2021/04/08 06:20:11;;;;;;;35.13;17.15;;;;;;;;;;8324199;28;20048;-71
2021/04/08 06:24:26;;;;;;;22.92;14.90;;;;;;;;;;8323963;28;20496;-70
2021/04/08 06:28:30;;;;;;;21.27;12.48;;;;;;;;;;8324410;28;20504;-70
2021/04/08 06:32:36;;;;;;;21.40;12.85;;;;;;;;;;8323243;28;20060;-71
2021/04/08 06:36:41;;;;;;;19.77;11.30;;;;;;;;;;8322506;28;20374;-71
2021/04/08 06:40:47;;;;;;;19.40;11.55;;;;;;;;;;8324199;28;20056;-70
2021/04/08 06:44:56;;;;;;;16.30;9.90;;;;;;;;;;8325840;28;20462;-70
2021/04/08 06:49:29;;;;;;;19.33;11.55;;;;;;;;;;8323246;28;20372;-70
2021/04/08 06:53:34;;;;;;;17.05;11.50;;;;;;;;;;8321791;28;20512;-70
2021/04/08 06:57:41;;;;;;;13.77;8.32;;;;;;;;;;8303899;28;20056;-70
2021/04/08 07:01:46;;;;;;;17.98;11.88;;;;;;;;;;8306760;28;20495;-71
2021/04/08 07:05:50;;;;;;;19.35;12.95;;;;;;;;;;8320181;28;20348;-71
2021/04/08 07:09:55;;;;;;;17.92;12.05;;;;;;;;;;8324339;28;20471;-71
2021/04/08 07:13:57;;;;;;;20.35;9.55;;;;;;;;;;8323011;28;20462;-71
2021/04/08 07:18:02;;;;;;;14.45;7.18;;;;;;;;;;8323442;28;20434;-71
2021/04/08 07:22:06;;;;;;;78.93;28.58;;;;;;;;;;8319121;28;20402;-71
2021/04/08 07:26:12;;;;;;;40.28;16.67;;;;;;;;;;8324523;28;20051;-71
2021/04/08 07:30:19;;;;;;;28.75;14.90;;;;;;;;;;8306670;28;20048;-71
2021/04/08 07:34:35;;;;;;;10.75;6.47;;;;;;;;;;8323929;28;20415;-73
2021/04/08 07:38:49;;;;;;;12.05;4.82;;;;;;;;;;8330782;28;20409;-73
2021/04/08 07:42:54;;;;;;;13.43;6.68;;;;;;;;;;8329458;28;20420;-73
2021/04/08 07:46:59;;;;;;;7.85;3.92;;;;;;;;;;8329575;28;20348;-72
2021/04/08 07:51:03;;;;;;;15.18;6.78;;;;;;;;;;8330088;28;20360;-72
2021/04/08 07:55:24;;;;;;;17.77;6.65;;;;;;;;;;8331464;28;20378;-73
2021/04/08 07:59:29;;;;;;;15.35;7.28;;;;;;;;;;8329973;28;20078;-73
2021/04/08 08:03:34;;;;;;;43.38;19.63;;;;;;;;;;8328244;28;20488;-73
2021/04/08 08:07:39;;;;;;;123.78;50.30;;;;;;;;;;8329711;28;20497;-73
2021/04/08 08:11:45;;;;;;;134.10;53.35;;;;;;;;;;8326431;28;20479;-74
2021/04/08 08:15:50;;;;;;;268.20;106.72;;;;;;;;;;8330023;28;20075;-73
2021/04/08 08:20:06;;;;;;;36.97;16.20;;;;;;;;;;8328602;28;20055;-73
2021/04/08 08:24:13;;;;;;;131.80;49.88;;;;;;;;;;8330103;28;20447;-73
2021/04/08 08:28:17;;;;;;;92.65;34.60;;;;;;;;;;8327219;28;20512;-73
2021/04/08 08:32:21;;;;;;;110.13;37.67;;;;;;;;;;8329212;28;20359;-72
2021/04/08 08:36:25;;;;;;;114.13;39.90;;;;;;;;;;8329707;28;20430;-72
2021/04/08 08:40:29;;;;;;;113.95;42.85;;;;;;;;;;8327939;28;20474;-72
2021/04/08 08:44:34;;;;;;;81.05;30.65;;;;;;;;;;8326715;28;20070;-73
2021/04/08 08:48:39;;;;;;;65.25;24.27;;;;;;;;;;8327636;28;20048;-73
2021/04/08 08:52:51;;;;;;;72.22;28.83;;;;;;;;;;8326538;28;20386;-73
2021/04/08 08:56:58;;;;;;;60.50;21.85;;;;;;;;;;8326287;28;20486;-72
2021/04/08 09:01:03;;;;;;;60.53;23.43;;;;;;;;;;8327508;28;20051;-72
2021/04/08 09:05:13;;;;;;;76.57;30.17;;;;;;;;;;8327093;28;20462;-74
2021/04/08 09:09:22;;;;;;;19.15;8.77;;;;;;;;;;8326466;28;20477;-73
2021/04/08 09:13:39;;;;;;;35.58;14.00;;;;;;;;;;8328477;28;20458;-74
2021/04/08 09:17:48;;;;;;;41.60;19.98;;;;;;;;;;8326544;28;20370;-73
2021/04/08 09:21:56;;;;;;;34.63;18.80;;;;;;;;;;8326995;28;20362;-74
2021/04/08 09:26:03;;;;;;;27.25;12.77;;;;;;;;;;8327263;28;20422;-73
2021/04/08 09:30:10;;;;;;;11.65;4.50;;;;;;;;;;8328277;28;20352;-74
2021/04/08 09:34:14;;;;;;;28.38;15.98;;;;;;;;;;8325615;28;20396;-75
2021/04/08 09:38:19;;;;;;;10.25;3.30;;;;;;;;;;8326235;28;20443;-72
2021/04/08 09:42:24;;;;;;;10.32;3.90;;;;;;;;;;8326130;28;20560;-73
2021/04/08 09:46:44;;;;;;;6.55;2.25;;;;;;;;;;8327152;28;20071;-74
2021/04/08 09:51:01;;;;;;;3.95;1.60;;;;;;;;;;8327144;28;20044;-75
2021/04/08 09:55:05;;;;;;;5.68;1.80;;;;;;;;;;8327088;28;20462;-74
2021/04/08 09:59:10;;;;;;;4.38;2.05;;;;;;;;;;8323435;28;20481;-73
2021/04/08 10:03:29;;;;;;;4.93;1.92;;;;;;;;;;8306992;28;20466;-72
2021/04/08 10:07:54;;;;;;;5.78;1.92;;;;;;;;;;8323164;28;20374;-72
2021/04/08 10:11:57;;;;;;;9.27;2.10;;;;;;;;;;8323335;28;20415;-74
2021/04/08 10:16:13;;;;;;;9.18;2.33;;;;;;;;;;8324564;28;20481;-72
2021/04/08 10:20:16;;;;;;;7.65;3.40;;;;;;;;;;8323502;28;20363;-72
2021/04/08 10:24:20;;;;;;;5.63;2.45;;;;;;;;;;8322577;28;20048;-72
2021/04/08 10:28:25;;;;;;;9.73;3.63;;;;;;;;;;8321629;28;20438;-71
2021/04/08 10:32:38;;;;;;;8.60;3.60;;;;;;;;;;8324934;28;20689;-72
2021/04/08 10:36:53;;;;;;;3.67;1.83;;;;;;;;;;8322579;28;20057;-72
2021/04/08 10:41:00;;;;;;;5.00;1.83;;;;;;;;;;8322107;28;20463;-72
2021/04/08 10:45:09;;;;;;;9.65;3.70;;;;;;;;;;8323972;28;20417;-72
2021/04/08 10:49:27;;;;;;;9.75;3.47;;;;;;;;;;8307251;28;20459;-71
2021/04/08 10:53:32;;;;;;;12.27;4.93;;;;;;;;;;8322652;28;20367;-72
2021/04/08 10:57:51;;;;;;;9.30;3.65;;;;;;;;;;8323394;28;20361;-72
2021/04/08 11:01:56;;;;;;;7.32;3.60;;;;;;;;;;8323869;28;20059;-72
2021/04/08 11:06:01;;;;;;;6.70;2.58;;;;;;;;;;8325941;28;20355;-71
2021/04/08 11:10:26;;;;;;;4.45;2.58;;;;;;;;;;8321973;28;20467;-71
2021/04/08 11:14:34;;;;;;;8.98;3.20;;;;;;;;;;8323548;28;20470;-71
2021/04/08 11:18:39;;;;;;;6.82;2.42;;;;;;;;;;8325310;28;20465;-71
2021/04/08 11:22:47;;;;;;;10.05;3.83;;;;;;;;;;8324189;28;20464;-71
2021/04/08 11:26:55;;;;;;;8.95;2.08;;;;;;;;;;8323323;28;20482;-70
2021/04/08 11:31:10;;;;;;;12.35;4.88;;;;;;;;;;8325608;28;20324;-70
2021/04/08 11:35:43;;;;;;;39.22;13.85;;;;;;;;;;8309990;28;20070;-70
2021/04/08 11:39:59;;;;;;;54.20;17.45;;;;;;;;;;8323468;28;20393;-70
2021/04/08 11:44:04;;;;;;;9.40;4.40;;;;;;;;;;8323913;28;20066;-70
2021/04/08 11:48:09;;;;;;;13.75;6.55;;;;;;;;;;8326552;28;20378;-72
2021/04/08 11:52:16;;;;;;;10.43;4.72;;;;;;;;;;8323668;28;20472;-70
2021/04/08 11:56:34;;;;;;;23.47;9.50;;;;;;;;;;8322904;28;20382;-72
2021/04/08 12:00:41;;;;;;;21.37;7.23;;;;;;;;;;8321345;28;20450;-71
2021/04/08 12:04:49;;;;;;;12.75;4.05;;;;;;;;;;8324241;28;20074;-71
2021/04/08 12:08:55;;;;;;;12.03;5.43;;;;;;;;;;8305958;28;20115;-71
2021/04/08 12:13:10;;;;;;;9.88;4.55;;;;;;;;;;8321613;28;20044;-71
2021/04/08 12:17:14;;;;;;;15.73;8.13;;;;;;;;;;8321676;28;20446;-71
2021/04/08 12:21:20;;;;;;;31.33;13.50;;;;;;;;;;8323533;28;20474;-71
2021/04/08 12:25:24;;;;;;;59.10;27.27;;;;;;;;;;8329668;28;20435;-72
2021/04/08 12:29:29;;;;;;;133.60;64.82;;;;;;;;;;8327742;28;20350;-74
2021/04/08 12:33:36;;;;;;;102.05;35.28;;;;;;;;;;8330054;28;20343;-73
2021/04/08 12:37:41;;;;;;;27.25;13.02;;;;;;;;;;8328610;28;20397;-72
2021/04/08 12:41:46;;;;;;;7.40;3.47;;;;;;;;;;8327306;28;20808;-72
2021/04/08 12:45:50;;;;;;;7.53;3.80;;;;;;;;;;8327379;28;20482;-71
2021/04/08 12:49:55;;;;;;;5.63;3.08;;;;;;;;;;8326692;28;20391;-72
2021/04/08 12:53:59;;;;;;;6.22;2.28;;;;;;;;;;8327169;28;20389;-72
2021/04/08 12:58:07;;;;;;;5.72;1.65;;;;;;;;;;8326478;28;20405;-72
2021/04/08 13:02:11;;;;;;;6.20;2.13;;;;;;;;;;8328157;28;20377;-73
2021/04/08 13:06:17;;;;;;;18.15;7.75;;;;;;;;;;8328336;28;20340;-73
2021/04/08 13:10:22;;;;;;;10.98;4.30;;;;;;;;;;8329240;28;20386;-72
2021/04/08 13:14:27;;;;;;;8.55;3.55;;;;;;;;;;8326886;28;20167;-72
2021/04/08 13:18:31;;;;;;;10.13;4.65;;;;;;;;;;8328270;28;20443;-74
2021/04/08 13:22:37;;;;;;;12.75;2.70;;;;;;;;;;8326770;28;20451;-74
2021/04/08 13:26:41;;;;;;;9.43;3.20;;;;;;;;;;8325026;28;20082;-73
2021/04/08 13:30:46;;;;;;;5.25;2.97;;;;;;;;;;8326930;28;20348;-73
2021/04/08 13:34:51;;;;;;;4.57;2.58;;;;;;;;;;8327427;28;20485;-71
2021/04/08 13:38:55;;;;;;;4.47;2.53;;;;;;;;;;8309497;28;20335;-75
2021/04/08 13:43:00;;;;;;;5.57;2.25;;;;;;;;;;8309054;28;20442;-73
2021/04/08 13:47:05;;;;;;;4.90;1.73;;;;;;;;;;8326060;28;20070;-71
2021/04/08 13:51:10;;;;;;;3.60;2.40;;;;;;;;;;8328064;28;20466;-72
2021/04/08 13:55:17;;;;;;;8.15;2.55;;;;;;;;;;8323773;28;20078;-71
2021/04/08 13:59:22;;;;;;;7.82;3.67;;;;;;;;;;8324028;28;20447;-72
2021/04/08 14:03:28;;;;;;;6.70;2.47;;;;;;;;;;8322644;28;20366;-71
2021/04/08 14:07:31;;;;;;;5.57;2.75;;;;;;;;;;8327152;28;20446;-71
2021/04/08 14:11:36;;;;;;;8.13;3.67;;;;;;;;;;8325761;28;20584;-71
2021/04/08 14:15:41;;;;;;;10.55;3.63;;;;;;;;;;8323516;28;20382;-71
2021/04/08 14:19:45;;;;;;;14.02;6.53;;;;;;;;;;8324585;28;20117;-72
2021/04/08 14:23:52;;;;;;;6.30;3.08;;;;;;;;;;8325163;28;20470;-72
2021/04/08 14:27:56;;;;;;;12.02;3.50;;;;;;;;;;8324206;28;20457;-74
2021/04/08 14:31:59;;;;;;;7.20;2.67;;;;;;;;;;8323780;28;20114;-72
2021/04/08 14:36:04;;;;;;;6.82;2.75;;;;;;;;;;8323029;28;20407;-73
2021/04/08 14:40:09;;;;;;;36.45;14.80;;;;;;;;;;8323054;28;20493;-72
2021/04/08 14:44:13;;;;;;;7.15;3.78;;;;;;;;;;8322343;28;20066;-72
2021/04/08 14:48:17;;;;;;;6.70;3.08;;;;;;;;;;8321028;28;20485;-73
2021/04/08 14:52:21;;;;;;;18.60;7.55;;;;;;;;;;8322504;28;20040;-72
2021/04/08 14:56:24;;;;;;;41.88;16.73;;;;;;;;;;8319985;28;20662;-72
2021/04/08 15:00:28;;;;;;;18.30;5.88;;;;;;;;;;8321620;28;20052;-72
2021/04/08 15:04:33;;;;;;;7.78;3.67;;;;;;;;;;8322174;28;20340;-72
2021/04/08 15:08:37;;;;;;;30.13;20.27;;;;;;;;;;8324120;28;20363;-72
2021/04/08 15:12:41;;;;;;;89.22;49.05;;;;;;;;;;8323375;28;20466;-72
2021/04/08 15:16:45;;;;;;;14.75;5.35;;;;;;;;;;8324126;28;20477;-72
2021/04/08 15:20:48;;;;;;;9.80;4.53;;;;;;;;;;8306236;28;20356;-72
2021/04/08 15:24:53;;;;;;;17.10;6.82;;;;;;;;;;8325383;28;20052;-72
2021/04/08 15:28:59;;;;;;;10.90;4.68;;;;;;;;;;8321620;28;20070;-72
2021/04/08 15:33:04;;;;;;;13.45;5.28;;;;;;;;;;8322446;28;20485;-72
2021/04/08 15:37:10;;;;;;;7.88;3.20;;;;;;;;;;8322662;28;20067;-72
2021/04/08 15:41:19;;;;;;;16.52;4.63;;;;;;;;;;8322169;28;20078;-72
2021/04/08 15:45:24;;;;;;;18.02;5.18;;;;;;;;;;8321531;28;20352;-73
2021/04/08 15:49:31;;;;;;;14.32;5.40;;;;;;;;;;8322560;28;20455;-72
2021/04/08 15:53:36;;;;;;;11.00;4.05;;;;;;;;;;8322937;28;20390;-72
2021/04/08 15:57:49;;;;;;;11.45;4.63;;;;;;;;;;8327356;28;20056;-71
2021/04/08 16:01:57;;;;;;;13.05;4.80;;;;;;;;;;8331704;28;20397;-72
2021/04/08 16:06:05;;;;;;;21.48;8.43;;;;;;;;;;8329054;28;20520;-71
2021/04/08 16:10:10;;;;;;;17.80;6.47;;;;;;;;;;8326766;28;20458;-72
2021/04/08 16:14:15;;;;;;;17.42;4.50;;;;;;;;;;8328349;28;20493;-72
2021/04/08 16:18:22;;;;;;;17.08;6.25;;;;;;;;;;8329134;28;20087;-72
2021/04/08 16:22:32;;;;;;;9.93;4.20;;;;;;;;;;8328267;28;20467;-71
2021/04/08 16:26:39;;;;;;;15.05;4.78;;;;;;;;;;8330881;28;20641;-72
2021/04/08 16:30:46;;;;;;;12.50;5.10;;;;;;;;;;8327377;28;20457;-72
2021/04/08 16:34:51;;;;;;;13.60;4.95;;;;;;;;;;8328970;28;20470;-72
2021/04/08 16:38:56;;;;;;;13.88;5.15;;;;;;;;;;8327576;28;20478;-72
2021/04/08 16:43:01;;;;;;;14.52;4.45;;;;;;;;;;8328639;28;20070;-72
2021/04/08 16:47:06;;;;;;;16.25;5.78;;;;;;;;;;8328718;28;20356;-72
2021/04/08 16:51:13;;;;;;;16.02;4.88;;;;;;;;;;8329348;28;20358;-71
2021/04/08 16:55:20;;;;;;;12.93;4.50;;;;;;;;;;8327464;28;20071;-71
2021/04/08 16:59:26;;;;;;;17.65;5.72;;;;;;;;;;8325671;28;20508;-71
2021/04/08 17:03:29;;;;;;;30.92;9.73;;;;;;;;;;8328070;28;20123;-71
2021/04/08 17:07:34;;;;;;;20.10;7.03;;;;;;;;;;8327241;28;20051;-71
2021/04/08 17:11:37;;;;;;;16.45;6.15;;;;;;;;;;8324913;28;20546;-72
2021/04/08 17:15:43;;;;;;;29.27;8.90;;;;;;;;;;8326423;28;20382;-72
2021/04/08 17:19:49;;;;;;;58.75;18.27;;;;;;;;;;8327070;28;20078;-72
2021/04/08 17:23:54;;;;;;;69.38;20.92;;;;;;;;;;8326879;28;20451;-71
2021/04/08 17:27:57;;;;;;;41.00;17.38;;;;;;;;;;8326419;28;20447;-70
2021/04/08 17:32:04;;;;;;;98.47;55.08;;;;;;;;;;8325206;28;20358;-71
2021/04/08 17:36:09;;;;;;;72.63;38.85;;;;;;;;;;8326298;28;20059;-73
2021/04/08 17:40:16;;;;;;;107.78;47.15;;;;;;;;;;8325382;28;20109;-72
2021/04/08 17:44:23;;;;;;;194.88;78.22;;;;;;;;;;8326496;28;20409;-72
2021/04/08 17:48:29;;;;;;;145.45;58.10;;;;;;;;;;8324774;28;20752;-71
2021/04/08 17:52:35;;;;;;;132.52;59.55;;;;;;;;;;8326038;28;20378;-71
2021/04/08 17:56:41;;;;;;;128.95;58.60;;;;;;;;;;8326126;28;20352;-71
2021/04/08 18:00:45;;;;;;;141.05;56.33;;;;;;;;;;8325829;28;20568;-71
2021/04/08 18:04:50;;;;;;;144.45;56.20;;;;;;;;;;8325473;28;20374;-71
2021/04/08 18:08:54;;;;;;;136.30;50.83;;;;;;;;;;8325635;28;20451;-71
2021/04/08 18:13:00;;;;;;;142.90;49.33;;;;;;;;;;8324750;28;20481;-71
2021/04/08 18:17:05;;;;;;;131.48;46.17;;;;;;;;;;8326670;28;20073;-71
2021/04/08 18:21:10;;;;;;;84.47;32.05;;;;;;;;;;8325184;28;20055;-71
2021/04/08 18:25:17;;;;;;;81.93;31.05;;;;;;;;;;8324793;28;20473;-72
2021/04/08 18:29:20;;;;;;;65.45;26.92;;;;;;;;;;8323571;28;20483;-71
2021/04/08 18:33:24;;;;;;;58.30;23.48;;;;;;;;;;8327271;28;20362;-71
2021/04/08 18:37:31;;;;;;;45.63;19.92;;;;;;;;;;8324501;28;20043;-72
2021/04/08 18:41:36;;;;;;;52.20;18.17;;;;;;;;;;8325969;28;20056;-71
2021/04/08 18:45:40;;;;;;;38.53;15.95;;;;;;;;;;8323179;28;20462;-71
2021/04/08 18:49:44;;;;;;;53.78;19.30;;;;;;;;;;8323521;28;20056;-71
2021/04/08 18:53:49;;;;;;;63.63;19.73;;;;;;;;;;8325265;28;20355;-71
2021/04/08 18:57:53;;;;;;;73.43;25.75;;;;;;;;;;8324429;28;20362;-71
2021/04/08 19:01:58;;;;;;;68.43;25.10;;;;;;;;;;8323929;28;20381;-71
2021/04/08 19:06:04;;;;;;;59.38;20.55;;;;;;;;;;8323994;28;20374;-71
2021/04/08 19:10:11;;;;;;;46.05;17.98;;;;;;;;;;8322498;28;20474;-71
2021/04/08 19:14:20;;;;;;;51.47;18.13;;;;;;;;;;8323767;28;20477;-71
2021/04/08 19:18:27;;;;;;;82.10;23.42;;;;;;;;;;8323878;28;20394;-71
2021/04/08 19:22:32;;;;;;;70.15;23.05;;;;;;;;;;8321832;28;20055;-71
2021/04/08 19:26:38;;;;;;;67.72;25.35;;;;;;;;;;8321955;28;20443;-71
2021/04/08 19:30:47;;;;;;;79.93;25.75;;;;;;;;;;8323184;28;20460;-71
2021/04/08 19:34:51;;;;;;;83.80;28.40;;;;;;;;;;8328654;28;20360;-70
2021/04/08 19:38:56;;;;;;;56.70;21.70;;;;;;;;;;8329800;28;20402;-71
2021/04/08 19:43:01;;;;;;;81.57;22.92;;;;;;;;;;8330554;28;20408;-71
2021/04/08 19:47:05;;;;;;;97.68;28.45;;;;;;;;;;8330776;28;20355;-72
2021/04/08 19:51:10;;;;;;;134.55;32.15;;;;;;;;;;8329659;28;20604;-72
2021/04/08 19:55:15;;;;;;;142.52;36.05;;;;;;;;;;8330497;28;20470;-71
2021/04/08 19:59:19;;;;;;;125.63;30.08;;;;;;;;;;8330430;28;20055;-71
2021/04/08 20:03:23;;;;;;;82.38;22.40;;;;;;;;;;8329672;28;20348;-70
2021/04/08 20:07:29;;;;;;;90.60;23.10;;;;;;;;;;8329869;28;20367;-70
2021/04/08 20:11:36;;;;;;;75.55;20.85;;;;;;;;;;8328336;28;20070;-70
2021/04/08 20:15:41;;;;;;;50.30;15.95;;;;;;;;;;8328679;28;20481;-72
2021/04/08 20:19:45;;;;;;;53.60;18.27;;;;;;;;;;8326111;28;20356;-71
2021/04/08 20:23:49;;;;;;;58.10;18.38;;;;;;;;;;8327403;28;20466;-69
2021/04/08 20:27:54;;;;;;;77.18;21.85;;;;;;;;;;8328195;28;20485;-71
2021/04/08 20:31:59;;;;;;;83.88;26.40;;;;;;;;;;8326656;28;20044;-72
2021/04/08 20:36:07;;;;;;;84.10;26.05;;;;;;;;;;8327595;28;20431;-71
2021/04/08 20:40:12;;;;;;;76.43;25.63;;;;;;;;;;8330644;28;20409;-75
2021/04/08 20:44:16;;;;;;;85.70;25.58;;;;;;;;;;8328528;28;20359;-71
2021/04/08 20:48:21;;;;;;;115.47;27.23;;;;;;;;;;8329447;28;20427;-72
2021/04/08 20:52:25;;;;;;;87.60;26.42;;;;;;;;;;8328307;28;20352;-71
2021/04/08 20:56:29;;;;;;;92.45;29.17;;;;;;;;;;8327697;28;20079;-70
2021/04/08 21:00:32;;;;;;;87.72;29.65;;;;;;;;;;8327165;28;20368;-71
2021/04/08 21:04:38;;;;;;;85.95;25.83;;;;;;;;;;8326624;28;20466;-71
2021/04/08 21:08:42;;;;;;;79.22;24.92;;;;;;;;;;8327336;28;20052;-71
2021/04/08 21:12:48;;;;;;;85.55;26.88;;;;;;;;;;8328897;28;20406;-70
2021/04/08 21:16:53;;;;;;;76.78;25.60;;;;;;;;;;8329325;28;20368;-70
2021/04/08 21:20:59;;;;;;;71.45;26.17;;;;;;;;;;8326524;28;20379;-70
2021/04/08 21:25:06;;;;;;;73.35;25.48;;;;;;;;;;8325169;28;20504;-70
2021/04/08 21:29:11;;;;;;;71.20;22.40;;;;;;;;;;8327178;28;20485;-69
2021/04/08 21:33:18;;;;;;;65.35;21.90;;;;;;;;;;8326063;28;20070;-69
2021/04/08 21:37:22;;;;;;;64.55;25.65;;;;;;;;;;8325423;28;20362;-69
2021/04/08 21:41:26;;;;;;;67.70;23.27;;;;;;;;;;8327307;28;20450;-69
2021/04/08 21:45:31;;;;;;;70.47;23.00;;;;;;;;;;8325742;28;20356;-69
2021/04/08 21:49:35;;;;;;;96.15;29.45;;;;;;;;;;8324155;28;20372;-69
2021/04/08 21:53:40;;;;;;;63.08;22.15;;;;;;;;;;8325722;28;20451;-70
2021/04/08 21:57:45;;;;;;;65.63;22.40;;;;;;;;;;8325389;28;20502;-69
2021/04/08 22:01:49;;;;;;;65.25;22.00;;;;;;;;;;8324508;28;20478;-69
2021/04/08 22:05:55;;;;;;;59.80;22.60;;;;;;;;;;8325260;28;20465;-69
2021/04/08 22:10:00;;;;;;;60.15;21.60;;;;;;;;;;8325452;28;20471;-69
2021/04/08 22:14:05;;;;;;;56.17;22.00;;;;;;;;;;8327930;28;20386;-69
2021/04/08 22:18:10;;;;;;;57.95;23.08;;;;;;;;;;8323829;28;20044;-68
2021/04/08 22:22:14;;;;;;;56.85;22.23;;;;;;;;;;8326798;28;20391;-68
2021/04/08 22:26:24;;;;;;;73.63;26.65;;;;;;;;;;8327087;28;20342;-70
2021/04/08 22:30:30;;;;;;;61.58;21.88;;;;;;;;;;8322952;28;20371;-70
2021/04/08 22:34:34;;;;;;;59.00;22.25;;;;;;;;;;8325195;28;20374;-68
2021/04/08 22:38:40;;;;;;;58.83;21.17;;;;;;;;;;8325059;28;20377;-69
2021/04/08 22:42:44;;;;;;;57.17;22.45;;;;;;;;;;8307706;28;20447;-69
2021/04/08 22:46:48;;;;;;;59.70;22.75;;;;;;;;;;8326194;28;20048;-68
2021/04/08 22:50:53;;;;;;;64.82;22.98;;;;;;;;;;8325168;28;20378;-68
2021/04/08 22:54:59;;;;;;;72.65;22.65;;;;;;;;;;8324257;28;20442;-68
2021/04/08 22:59:06;;;;;;;65.25;22.30;;;;;;;;;;8323837;28;20343;-68
2021/04/08 23:03:11;;;;;;;64.05;22.42;;;;;;;;;;8324402;28;20470;-68
2021/04/08 23:07:17;;;;;;;64.53;23.08;;;;;;;;;;8322483;28;20052;-68
2021/04/08 23:11:23;;;;;;;60.17;23.38;;;;;;;;;;8324920;28;20363;-67
2021/04/08 23:15:28;;;;;;;65.82;23.20;;;;;;;;;;8324304;28;20362;-68
2021/04/08 23:19:33;;;;;;;54.85;21.27;;;;;;;;;;8323614;28;20052;-68
2021/04/08 23:23:37;;;;;;;60.53;21.95;;;;;;;;;;8325327;28;20386;-69
2021/04/08 23:27:42;;;;;;;68.70;23.90;;;;;;;;;;8325658;28;20052;-68
2021/04/08 23:31:47;;;;;;;69.07;21.83;;;;;;;;;;8324584;28;20435;-68
2021/04/08 23:35:51;;;;;;;65.97;24.00;;;;;;;;;;8323891;28;20079;-68
2021/04/08 23:39:56;;;;;;;59.28;21.58;;;;;;;;;;8323638;28;20362;-68
2021/04/08 23:44:04;;;;;;;60.80;21.13;;;;;;;;;;8323798;28;20048;-68
2021/04/08 23:48:09;;;;;;;54.70;19.70;;;;;;;;;;8322871;28;20361;-69
2021/04/08 23:52:13;;;;;;;50.33;20.83;;;;;;;;;;8321323;28;20419;-68
2021/04/08 23:56:18;;;;;;;48.47;19.58;;;;;;;;;;8322918;28;20459;-67
